createdAt,value
2022-10-02T00:02:55.945Z,101197.59
2022-10-02T00:08:03.025Z,101190.50
2022-10-02T00:13:11.309Z,101184.28
2022-10-02T00:18:14.974Z,101196.13
2022-10-02T00:23:32.241Z,101201.09
2022-10-02T00:28:45.635Z,101206.91
2022-10-02T00:33:58.922Z,101217.13
2022-10-02T00:39:18.912Z,101210.09
2022-10-02T00:44:20.306Z,101216.75
2022-10-02T00:49:30.782Z,101215.13
2022-10-02T00:54:47.290Z,101221.19
2022-10-02T01:00:00.847Z,101215.34
2022-10-02T01:05:03.454Z,101225.69
2022-10-02T01:10:04.884Z,101224.06
2022-10-02T01:15:16.584Z,101225.63
2022-10-02T01:20:21.511Z,101211.72
2022-10-02T01:25:22.883Z,101206.66
2022-10-02T01:30:24.210Z,101205.63
2022-10-02T01:35:27.930Z,101204.88
2022-10-02T01:40:30.968Z,101212.88
2022-10-02T01:45:52.997Z,101228.72
2022-10-02T01:51:02.147Z,101228.19
2022-10-02T01:56:10.979Z,101233.44
2022-10-02T02:01:28.127Z,101225.00
2022-10-02T02:06:47.108Z,101206.88
2022-10-02T02:11:54.455Z,101203.28
2022-10-02T02:17:21.955Z,101210.09
2022-10-02T02:22:46.799Z,101210.19
2022-10-02T02:27:50.671Z,101195.28
2022-10-02T02:32:58.586Z,101195.94
2022-10-02T02:38:12.669Z,101208.00
2022-10-02T02:43:16.589Z,101201.16
2022-10-02T02:48:41.174Z,101203.59
2022-10-02T02:53:56.728Z,101206.28
2022-10-02T02:59:01.484Z,101203.00
2022-10-02T03:04:03.270Z,101197.00
2022-10-02T03:09:06.667Z,101203.03
2022-10-02T03:14:28.682Z,101201.31
2022-10-02T03:19:29.934Z,101185.63
2022-10-02T03:24:35.510Z,101193.31
2022-10-02T03:29:49.409Z,101188.03
2022-10-02T03:34:50.908Z,101195.78
2022-10-02T03:39:52.515Z,101199.22
2022-10-02T03:44:53.799Z,101201.75
2022-10-02T03:49:55.080Z,101202.84
2022-10-02T03:54:57.591Z,101201.84
2022-10-02T04:00:09.719Z,101202.72
2022-10-02T04:05:37.357Z,101196.66
2022-10-02T04:10:45.696Z,101194.97
2022-10-02T04:15:56.228Z,101202.78
2022-10-02T04:21:09.280Z,101207.25
2022-10-02T04:26:14.508Z,101197.81
2022-10-02T04:31:15.903Z,101197.03
2022-10-02T04:36:26.959Z,101188.41
2022-10-02T04:41:47.175Z,101180.44
2022-10-02T04:46:54.067Z,101181.41
2022-10-02T04:51:55.453Z,101170.91
2022-10-02T04:57:15.688Z,101176.78
2022-10-02T05:02:26.238Z,101173.16
2022-10-02T05:07:45.865Z,101169.91
2022-10-02T05:12:50.204Z,101172.38
2022-10-02T05:18:03.400Z,101172.50
2022-10-02T05:23:18.369Z,101175.69
2022-10-02T05:28:39.306Z,101172.88
2022-10-02T05:33:48.355Z,101183.31
2022-10-02T05:38:49.841Z,101208.34
2022-10-02T05:44:04.314Z,101217.00
2022-10-02T05:49:05.597Z,101210.31
2022-10-02T05:54:16.275Z,101204.16
2022-10-02T05:59:26.579Z,101207.06
2022-10-02T06:04:30.799Z,101213.09
2022-10-02T06:09:50.794Z,101219.31
2022-10-02T06:15:01.147Z,101213.16
2022-10-02T06:20:03.791Z,101231.28
2022-10-02T06:25:27.245Z,101235.75
2022-10-02T06:30:30.236Z,101228.09
2022-10-02T06:35:51.419Z,101241.94
2022-10-02T06:41:11.840Z,101234.19
2022-10-02T06:46:27.038Z,101253.28
2022-10-02T06:51:50.067Z,101249.09
2022-10-02T06:57:14.638Z,101251.66
2022-10-02T07:02:25.151Z,101255.34
2022-10-02T07:07:37.321Z,101265.03
2022-10-02T07:12:57.142Z,101276.53
2022-10-02T07:18:05.488Z,101273.13
2022-10-02T07:23:26.492Z,101287.19
2022-10-02T07:28:34.916Z,101280.53
2022-10-02T07:33:45.575Z,101285.88
2022-10-02T07:38:57.563Z,101292.03
2022-10-02T07:44:17.338Z,101297.34
2022-10-02T07:49:43.015Z,101298.25
2022-10-02T07:54:44.485Z,101307.81
2022-10-02T07:59:46.345Z,101310.50
2022-10-02T08:04:47.848Z,101315.63
2022-10-02T08:09:52.579Z,101324.34
2022-10-02T08:14:55.666Z,101326.31
2022-10-02T08:20:03.162Z,101327.41
2022-10-02T08:25:25.612Z,101337.84
2022-10-02T08:30:26.942Z,101352.81
2022-10-02T08:35:35.621Z,101357.16
2022-10-02T08:40:55.793Z,101353.81
2022-10-02T08:46:02.316Z,101362.47
2022-10-02T08:51:22.716Z,101382.63
2022-10-02T08:56:30.235Z,101384.41
2022-10-02T09:01:44.569Z,101395.78
2022-10-02T09:07:04.414Z,101392.50
2022-10-02T09:12:31.986Z,101397.69
2022-10-02T09:17:55.854Z,101402.03
2022-10-02T09:23:06.453Z,101413.47
2022-10-02T09:28:37.337Z,101414.41
2022-10-02T09:33:39.349Z,101426.59
2022-10-02T09:38:55.813Z,101439.81
2022-10-02T09:44:11.836Z,101452.78
2022-10-02T09:49:13.089Z,101470.34
2022-10-02T09:54:21.367Z,101488.72
2022-10-02T09:59:25.435Z,101511.41
2022-10-02T10:05:11.064Z,101541.00
2022-10-02T10:10:19.346Z,101574.94
2022-10-02T10:15:41.607Z,101584.25
2022-10-02T10:21:04.482Z,101600.91
2022-10-02T10:26:26.325Z,101596.66
2022-10-02T10:31:46.329Z,101593.91
2022-10-02T10:37:13.088Z,101605.19
2022-10-02T10:42:14.572Z,101605.97
2022-10-02T10:47:18.206Z,101624.13
2022-10-02T10:52:43.084Z,101630.34
2022-10-02T10:57:51.511Z,101645.16
2022-10-02T11:03:04.575Z,101654.59
2022-10-02T11:08:15.427Z,101662.47
2022-10-02T11:13:19.255Z,101655.00
2022-10-02T11:18:34.526Z,101643.88
2022-10-02T11:23:44.337Z,101648.13
2022-10-02T11:29:00.229Z,101655.91
2022-10-02T11:34:25.421Z,101664.81
2022-10-02T11:39:45.434Z,101677.81
2022-10-02T11:44:46.749Z,101679.34
2022-10-02T11:50:02.769Z,101682.84
2022-10-02T11:55:13.778Z,101687.19
2022-10-02T12:00:31.733Z,101697.38
2022-10-02T12:05:38.988Z,101697.25
2022-10-02T12:10:47.048Z,101702.66
2022-10-02T12:16:09.033Z,101695.38
2022-10-02T12:21:40.677Z,101679.75
2022-10-02T12:27:02.749Z,101676.31
2022-10-02T12:32:16.401Z,101675.63
2022-10-02T12:37:21.223Z,101681.66
2022-10-02T12:42:26.768Z,101689.31
2022-10-02T12:47:31.089Z,101700.59
2022-10-02T12:52:40.024Z,101697.19
2022-10-02T12:58:00.619Z,101693.84
2022-10-02T13:03:34.575Z,101699.81
2022-10-02T13:08:49.439Z,101704.16
2022-10-02T13:13:50.873Z,101707.69
2022-10-02T13:19:01.983Z,101712.97
2022-10-02T13:24:14.255Z,101707.03
2022-10-02T13:29:27.143Z,101712.38
2022-10-02T13:34:40.439Z,101703.59
2022-10-02T13:39:44.991Z,101726.91
2022-10-02T13:45:00.429Z,101714.78
2022-10-02T13:50:15.320Z,101734.81
2022-10-02T13:55:24.006Z,101730.44
2022-10-02T14:00:42.808Z,101727.91
2022-10-02T14:05:48.678Z,101735.88
2022-10-02T14:10:56.060Z,101730.84
2022-10-02T14:16:16.293Z,101728.13
2022-10-02T14:21:21.742Z,101743.69
2022-10-02T14:26:41.581Z,101752.38
2022-10-02T14:31:52.809Z,101755.72
2022-10-02T14:37:16.645Z,101759.03
2022-10-02T14:42:37.313Z,101770.16
2022-10-02T14:47:54.702Z,101782.13
2022-10-02T14:53:06.498Z,101774.41
2022-10-02T14:58:28.850Z,101778.84
2022-10-02T15:03:36.387Z,101784.84
2022-10-02T15:08:48.174Z,101784.69
2022-10-02T15:13:52.287Z,101790.97
2022-10-02T15:19:01.878Z,101788.31
2022-10-02T15:24:20.026Z,101794.31
2022-10-02T15:29:36.929Z,101811.75
2022-10-02T15:34:46.569Z,101808.09
2022-10-02T15:40:01.038Z,101823.84
2022-10-02T15:45:02.474Z,101829.81
2022-10-02T15:50:22.505Z,101834.75
2022-10-02T15:55:37.567Z,101847.59
2022-10-02T16:01:03.995Z,101861.16
2022-10-02T16:06:19.623Z,101877.34
2022-10-02T16:11:43.528Z,101877.91
2022-10-02T16:16:51.192Z,101893.34
2022-10-02T16:22:04.589Z,101903.63
2022-10-02T16:27:20.054Z,101910.19
2022-10-02T16:32:30.982Z,101940.06
2022-10-02T16:37:47.648Z,101941.75
2022-10-02T16:42:57.891Z,101952.84
2022-10-02T16:48:02.170Z,101963.56
2022-10-02T16:53:13.271Z,101986.34
2022-10-02T16:58:22.611Z,101982.16
2022-10-02T17:03:34.518Z,101992.59
2022-10-02T17:09:09.566Z,102011.72
2022-10-02T17:14:18.250Z,102009.28
2022-10-02T17:19:23.034Z,102023.06
2022-10-02T17:24:42.804Z,102034.53
2022-10-02T17:29:49.881Z,102049.34
2022-10-02T17:34:51.565Z,102056.16
2022-10-02T17:39:55.783Z,102066.84
2022-10-02T17:45:15.539Z,102067.88
2022-10-02T17:50:29.967Z,102080.44
2022-10-02T17:56:08.876Z,102089.19
2022-10-02T18:01:29.131Z,102096.38
2022-10-02T18:06:51.724Z,102104.94
2022-10-02T18:12:11.779Z,102117.03
2022-10-02T18:17:22.547Z,102120.50
2022-10-02T18:22:36.400Z,102135.53
2022-10-02T18:27:46.911Z,102124.44
2022-10-02T18:33:00.312Z,102132.09
2022-10-02T18:38:12.505Z,102136.16
2022-10-02T18:43:33.382Z,102139.00
2022-10-02T18:48:53.907Z,102140.41
2022-10-02T18:54:15.235Z,102141.25
2022-10-02T18:59:29.499Z,102138.66
2022-10-02T19:04:47.888Z,102145.78
2022-10-02T19:10:10.433Z,102154.22
2022-10-02T19:15:25.336Z,102153.81
2022-10-02T19:20:44.945Z,102157.91
2022-10-02T19:25:50.320Z,102158.38
2022-10-02T19:30:53.459Z,102165.84
2022-10-02T19:35:54.803Z,102175.09
2022-10-02T19:40:58.621Z,102183.44
2022-10-02T19:46:02.343Z,102193.63
2022-10-02T19:51:25.218Z,102191.44
2022-10-02T19:56:33.139Z,102191.44
2022-10-02T20:01:48.852Z,102205.81
2022-10-02T20:06:55.449Z,102215.19
2022-10-02T20:12:01.171Z,102219.97
2022-10-02T20:17:09.268Z,102224.78
2022-10-02T20:22:19.848Z,102219.47
2022-10-02T20:27:31.273Z,102218.66
2022-10-02T20:32:39.247Z,102224.41
2022-10-02T20:37:51.955Z,102226.56
2022-10-02T20:42:58.235Z,102219.25
2022-10-02T20:48:19.291Z,102233.38
2022-10-02T20:53:33.498Z,102243.19
2022-10-02T20:58:34.908Z,102246.91
2022-10-02T21:03:40.258Z,102256.75
2022-10-02T21:08:48.013Z,102263.53
2022-10-02T21:14:00.942Z,102257.78
2022-10-02T21:19:21.377Z,102267.94
2022-10-02T21:24:37.808Z,102279.81
2022-10-02T21:30:02.476Z,102290.09
2022-10-02T21:35:03.865Z,102293.78
2022-10-02T21:40:24.138Z,102287.81
2022-10-02T21:45:43.931Z,102289.22
2022-10-02T21:50:48.368Z,102300.53
2022-10-02T21:56:10.695Z,102304.38
2022-10-02T22:01:21.561Z,102307.03
2022-10-02T22:06:37.355Z,102307.16
2022-10-02T22:11:47.683Z,102306.13
2022-10-02T22:16:52.292Z,102320.66
2022-10-02T22:22:00.159Z,102318.19
2022-10-02T22:27:22.212Z,102328.31
2022-10-02T22:33:00.999Z,102325.31
2022-10-02T22:38:20.880Z,102335.03
2022-10-02T22:43:41.072Z,102326.59
2022-10-02T22:49:04.692Z,102330.69
2022-10-02T22:54:14.942Z,102323.78
2022-10-02T22:59:19.790Z,102332.25
2022-10-02T23:04:21.053Z,102335.22
2022-10-02T23:09:24.868Z,102332.03
2022-10-02T23:14:30.412Z,102326.00
2022-10-02T23:19:46.822Z,102324.16
2022-10-02T23:24:57.104Z,102325.03
2022-10-02T23:30:02.395Z,102332.66
2022-10-02T23:35:12.886Z,102328.00
2022-10-02T23:40:14.166Z,102333.13
2022-10-02T23:45:35.971Z,102332.25
2022-10-02T23:50:37.229Z,102332.34
2022-10-02T23:55:39.532Z,102340.38
